Time;durP1;ratioP1;P1;durP2;ratioP2;P2;SDS_P1;SDS_P2;PMS_P1;PMS_P2;Temp;Humidity;BMP_temperature;BMP_pressure;BME280_temperature;BME280_humidity;BME280_pressure;Samples;Min_cycle;Max_cycle;Signal;HPM_P1;HPM_P2
2022/10/26 00:00:41;;;;;;;10.80;6.40;;;;;;;7.89;100.00;99855.70;100775;1341;23096;-36
2022/10/26 00:03:07;;;;;;;10.10;7.60;;;;;;;7.85;100.00;99859.28;100526;1344;23057;-36
2022/10/26 00:05:33;;;;;;;9.70;7.70;;;;;;;7.80;100.00;99863.02;100720;1345;23359;-36
2022/10/26 00:07:59;;;;;;;13.70;8.40;;;;;;;7.73;100.00;99865.20;100790;1339;22742;-36
2022/10/26 00:10:25;;;;;;;13.60;8.10;;;;;;;7.70;100.00;99869.41;100775;1340;22745;-36
2022/10/26 00:12:50;;;;;;;13.30;6.00;;;;;;;7.64;100.00;99881.14;100780;1337;24449;-33
2022/10/26 00:15:17;;;;;;;8.40;7.20;;;;;;;7.58;100.00;99878.80;100720;1335;24475;-37
2022/10/26 00:17:43;;;;;;;6.60;3.80;;;;;;;7.53;100.00;99881.63;100758;1337;23236;-33
2022/10/26 00:20:09;;;;;;;12.70;7.90;;;;;;;7.47;100.00;99878.67;100760;1345;23023;-34
2022/10/26 00:22:35;;;;;;;8.10;6.60;;;;;;;7.43;100.00;99875.77;100656;1334;25729;-37
2022/10/26 00:25:00;;;;;;;5.00;3.10;;;;;;;7.41;100.00;99876.42;100735;1341;25036;-33
2022/10/26 00:27:25;;;;;;;8.90;7.10;;;;;;;7.40;100.00;99878.53;100683;1343;22881;-36
2022/10/26 00:29:51;;;;;;;8.40;6.20;;;;;;;7.38;100.00;99884.27;100736;1345;22993;-34
2022/10/26 00:32:16;;;;;;;10.30;5.60;;;;;;;7.37;100.00;99878.69;100726;1340;24350;-33
2022/10/26 00:34:42;;;;;;;8.50;7.00;;;;;;;7.35;100.00;99871.08;100735;1332;22513;-33
2022/10/26 00:37:08;;;;;;;7.80;6.40;;;;;;;7.33;100.00;99870.05;100764;1340;24361;-33
2022/10/26 00:39:34;;;;;;;9.30;7.80;;;;;;;7.34;100.00;99872.81;100737;1341;22871;-40
2022/10/26 00:41:59;;;;;;;12.40;8.70;;;;;;;7.35;100.00;99877.98;100830;1331;25684;-33
2022/10/26 00:44:33;;;;;;;6.90;6.20;;;;;;;7.36;100.00;99879.48;100471;1343;23112;-37
2022/10/26 00:46:59;;;;;;;7.70;6.10;;;;;;;7.30;100.00;99886.10;100815;1343;22532;-34
2022/10/26 00:49:25;;;;;;;16.90;9.80;;;;;;;7.23;100.00;99891.05;100765;1339;25006;-34
2022/10/26 00:51:52;;;;;;;13.00;8.60;;;;;;;7.21;100.00;99892.65;100714;1337;23217;-34
2022/10/26 00:54:17;;;;;;;8.60;7.00;;;;;;;7.25;100.00;99894.56;100834;1341;22735;-37
2022/10/26 00:56:44;;;;;;;9.80;7.30;;;;;;;7.24;100.00;99898.96;100811;1343;23237;-34
2022/10/26 00:59:10;;;;;;;12.90;7.50;;;;;;;7.20;100.00;99900.05;100745;1341;23103;-37
2022/10/26 01:01:37;;;;;;;12.40;6.70;;;;;;;7.21;100.00;99905.30;100724;1341;24339;-37
2022/10/26 01:04:03;;;;;;;12.60;6.50;;;;;;;7.24;100.00;99904.14;100766;1345;23087;-36
2022/10/26 01:06:28;;;;;;;9.30;6.00;;;;;;;7.23;100.00;99904.80;100873;1345;22702;-34
2022/10/26 01:08:54;;;;;;;8.30;6.90;;;;;;;7.22;100.00;99906.96;100747;1337;22749;-32
2022/10/26 01:11:19;;;;;;;9.80;6.70;;;;;;;7.16;100.00;99911.23;100748;1343;24482;-36
2022/10/26 01:13:45;;;;;;;12.10;8.80;;;;;;;7.14;100.00;99910.90;100506;1344;24440;-35
2022/10/26 01:16:19;;;;;;;13.80;6.30;;;;;;;7.15;100.00;99912.64;100852;1337;24375;-36
2022/10/26 01:18:52;;;;;;;12.60;7.90;;;;;;;7.19;100.00;99917.87;100777;1337;23222;-32
2022/10/26 01:21:22;;;;;;;11.10;8.30;;;;;;;7.16;100.00;99924.73;100748;1345;22569;-35
2022/10/26 01:23:53;;;;;;;16.30;9.70;;;;;;;7.14;100.00;99925.35;100802;1343;24849;-32
2022/10/26 01:26:42;;;;;;;10.00;7.30;;;;;;;7.08;100.00;99920.91;100738;1345;22735;-32
2022/10/26 01:29:28;;;;;;;9.60;7.30;;;;;;;7.14;100.00;99922.62;100786;1339;22935;-37
2022/10/26 01:31:57;;;;;;;11.70;7.60;;;;;;;7.23;100.00;99925.38;100571;1345;23097;-33
2022/10/26 01:34:28;;;;;;;13.90;8.70;;;;;;;7.27;100.00;99925.53;100757;1340;24440;-36
2022/10/26 01:36:55;;;;;;;7.30;5.90;;;;;;;7.30;100.00;99927.02;100775;1337;24231;-34
2022/10/26 01:39:24;;;;;;;13.40;8.20;;;;;;;7.25;100.00;99922.35;100688;1341;22714;-34
2022/10/26 01:41:52;;;;;;;9.60;7.70;;;;;;;7.24;100.00;99921.02;100740;1334;24338;-31
2022/10/26 01:44:20;;;;;;;5.60;3.60;;;;;;;7.28;100.00;99922.05;100810;1340;22502;-37
2022/10/26 01:46:49;;;;;;;17.00;9.70;;;;;;;7.35;100.00;99922.67;100830;1345;22747;-38
2022/10/26 01:49:14;;;;;;;12.30;8.40;;;;;;;7.42;100.00;99922.70;100721;1343;24488;-37
2022/10/26 01:51:41;;;;;;;16.90;8.60;;;;;;;7.49;100.00;99929.80;100733;1339;23064;-36
2022/10/26 01:54:07;;;;;;;12.50;9.90;;;;;;;7.52;100.00;99927.06;100771;1343;22889;-34
2022/10/26 01:56:37;;;;;;;6.60;5.80;;;;;;;7.50;100.00;99930.43;100605;1339;22869;-36
2022/10/26 01:59:10;;;;;;;8.80;7.90;;;;;;;7.45;100.00;99927.52;100842;1331;24379;-35
2022/10/26 02:01:43;;;;;;;14.20;8.70;;;;;;;7.43;100.00;99925.77;100780;1330;25272;-33
2022/10/26 02:04:17;;;;;;;10.80;6.70;;;;;;;7.42;100.00;99923.73;100685;1339;22825;-35
2022/10/26 02:06:45;;;;;;;9.70;6.50;;;;;;;7.46;100.00;99919.79;100809;1339;22624;-35
2022/10/26 02:09:19;;;;;;;9.40;7.30;;;;;;;7.52;100.00;99921.48;100734;1339;24379;-32
2022/10/26 02:11:45;;;;;;;10.50;8.20;;;;;;;7.48;100.00;99923.27;100723;1339;23090;-33
2022/10/26 02:14:16;;;;;;;7.70;6.40;;;;;;;7.43;100.00;99924.01;100723;1339;23319;-33
2022/10/26 02:16:48;;;;;;;7.80;6.80;;;;;;;7.38;100.00;99919.68;100834;1337;25375;-33
2022/10/26 02:19:20;;;;;;;11.90;7.30;;;;;;;7.34;100.00;99924.64;100782;1334;22542;-33
2022/10/26 02:21:50;;;;;;;12.40;2.70;;;;;;;7.28;100.00;99924.71;100754;1331;23273;-36
2022/10/26 02:24:15;;;;;;;8.50;5.40;;;;;;;7.25;100.00;99921.45;100695;1339;24471;-31
2022/10/26 02:26:41;;;;;;;17.30;7.30;;;;;;;7.24;100.00;99923.73;100768;1339;23012;-34
2022/10/26 02:29:09;;;;;;;10.10;5.50;;;;;;;7.16;100.00;99923.85;100775;1338;22745;-36
2022/10/26 02:31:34;;;;;;;8.90;7.70;;;;;;;7.07;100.00;99921.45;100756;1338;22505;-37
2022/10/26 02:34:02;;;;;;;7.10;5.60;;;;;;;7.04;100.00;99924.05;100865;1337;22745;-33
2022/10/26 02:36:29;;;;;;;13.90;6.80;;;;;;;7.03;100.00;99922.06;100839;1334;22495;-37
2022/10/26 02:38:55;;;;;;;12.60;7.40;;;;;;;7.00;100.00;99924.95;100766;1339;24482;-37
2022/10/26 02:41:21;;;;;;;9.70;6.30;;;;;;;7.02;100.00;99923.88;100737;1339;24419;-33
2022/10/26 02:43:51;;;;;;;15.80;9.20;;;;;;;6.95;100.00;99919.13;100712;1339;23103;-36
2022/10/26 02:46:17;;;;;;;15.80;9.10;;;;;;;6.85;100.00;99915.84;100799;1332;25671;-36
2022/10/26 02:48:43;;;;;;;9.60;6.50;;;;;;;6.83;100.00;99922.34;100758;1339;25380;-32
2022/10/26 02:51:11;;;;;;;2.90;2.60;;;;;;;6.78;100.00;99923.89;100718;1331;24325;-34
2022/10/26 02:53:43;;;;;;;13.50;8.30;;;;;;;6.72;100.00;99923.80;100761;1339;24482;-35
2022/10/26 02:56:15;;;;;;;5.00;3.60;;;;;;;6.65;100.00;99921.35;100749;1339;22507;-32
2022/10/26 02:58:42;;;;;;;11.70;6.30;;;;;;;6.57;100.00;99920.54;100766;1337;23090;-32
2022/10/26 03:01:08;;;;;;;8.40;6.10;;;;;;;6.49;100.00;99920.88;100746;1331;22959;-32
2022/10/26 03:03:34;;;;;;;8.10;6.80;;;;;;;6.45;100.00;99922.17;100730;1338;24363;-35
2022/10/26 03:05:59;;;;;;;12.20;7.70;;;;;;;6.44;100.00;99921.27;100799;1337;23384;-35
2022/10/26 03:08:25;;;;;;;13.30;10.20;;;;;;;6.38;100.00;99928.02;100842;1339;25155;-33
2022/10/26 03:10:50;;;;;;;10.50;8.30;;;;;;;6.34;100.00;99932.03;100690;1333;22521;-37
2022/10/26 03:13:16;;;;;;;9.50;6.60;;;;;;;6.31;100.00;99933.17;100768;1337;24278;-31
2022/10/26 03:15:41;;;;;;;11.80;9.40;;;;;;;6.29;100.00;99938.36;100789;1339;23064;-35
2022/10/26 03:18:07;;;;;;;11.30;6.20;;;;;;;6.23;100.00;99939.27;100587;1342;23240;-31
2022/10/26 03:20:32;;;;;;;8.70;6.90;;;;;;;6.17;100.00;99940.17;100714;1339;23031;-32
2022/10/26 03:22:58;;;;;;;14.60;9.20;;;;;;;6.09;100.00;99937.31;100740;1340;22508;-32
2022/10/26 03:25:24;;;;;;;13.10;9.20;;;;;;;6.02;100.00;99937.19;100584;1330;24378;-34
2022/10/26 03:27:55;;;;;;;14.20;9.60;;;;;;;6.00;100.00;99937.20;100751;1339;23052;-35
2022/10/26 03:30:20;;;;;;;15.70;10.20;;;;;;;5.97;100.00;99939.45;100793;1339;22758;-35
2022/10/26 03:32:46;;;;;;;19.40;11.40;;;;;;;5.90;100.00;99938.23;100763;1339;24251;-32
2022/10/26 03:35:11;;;;;;;19.40;12.80;;;;;;;5.82;100.00;99937.86;100761;1339;25224;-39
2022/10/26 03:37:37;;;;;;;14.10;11.00;;;;;;;5.74;100.00;99934.84;100725;1334;22517;-32
2022/10/26 03:40:03;;;;;;;20.50;12.10;;;;;;;5.67;100.00;99939.27;100748;1339;22775;-35
2022/10/26 03:42:32;;;;;;;18.20;15.60;;;;;;;5.61;100.00;99939.23;100621;1334;22793;-33
2022/10/26 03:44:58;;;;;;;11.80;7.30;;;;;;;5.57;100.00;99939.86;100741;1324;25577;-36
2022/10/26 03:47:23;;;;;;;17.30;10.10;;;;;;;5.52;100.00;99941.94;100787;1337;22633;-33
2022/10/26 03:49:49;;;;;;;9.70;7.30;;;;;;;5.47;100.00;99947.09;100514;1327;22875;-33
2022/10/26 03:52:14;;;;;;;22.00;14.10;;;;;;;5.48;100.00;99951.23;100738;1339;23087;-33
2022/10/26 03:54:40;;;;;;;18.30;10.70;;;;;;;5.41;100.00;99951.36;100771;1334;22500;-35
2022/10/26 03:57:06;;;;;;;27.10;17.00;;;;;;;5.34;100.00;99949.02;100800;1331;22884;-35
2022/10/26 03:59:31;;;;;;;22.20;15.40;;;;;;;5.27;100.00;99946.18;100759;1339;24490;-34
2022/10/26 04:01:57;;;;;;;32.90;13.10;;;;;;;5.22;100.00;99945.48;100781;1331;23106;-36
2022/10/26 04:04:22;;;;;;;19.80;12.70;;;;;;;5.19;100.00;99947.45;100746;1339;24337;-38
2022/10/26 04:06:48;;;;;;;16.80;11.30;;;;;;;5.14;100.00;99948.46;100717;1339;24369;-33
2022/10/26 04:09:13;;;;;;;16.20;9.60;;;;;;;5.10;100.00;99952.80;100713;1339;23356;-35
2022/10/26 04:11:39;;;;;;;17.00;9.80;;;;;;;5.07;100.00;99952.37;100827;1334;23043;-34
2022/10/26 04:14:04;;;;;;;21.90;9.90;;;;;;;5.06;100.00;99953.85;100695;1339;24347;-36
2022/10/26 04:16:30;;;;;;;15.70;11.30;;;;;;;5.12;100.00;99958.98;100505;1337;22497;-34
2022/10/26 04:18:55;;;;;;;21.10;10.40;;;;;;;5.17;100.00;99962.91;100731;1339;25682;-33
2022/10/26 04:21:21;;;;;;;17.30;10.90;;;;;;;5.18;100.00;99963.72;100818;1338;22708;-36
2022/10/26 04:23:46;;;;;;;15.70;9.40;;;;;;;5.21;100.00;99963.97;100736;1332;22493;-34
2022/10/26 04:26:12;;;;;;;11.30;6.90;;;;;;;5.30;100.00;99966.32;100554;1339;22775;-33
2022/10/26 04:28:37;;;;;;;19.30;10.90;;;;;;;5.35;100.00;99968.24;100771;1339;24337;-36
2022/10/26 04:31:03;;;;;;;19.90;12.10;;;;;;;5.37;100.00;99970.06;100805;1339;25212;-36
2022/10/26 04:33:29;;;;;;;15.50;9.70;;;;;;;5.33;100.00;99969.70;100516;1339;22576;-36
2022/10/26 04:35:59;;;;;;;18.10;11.00;;;;;;;5.32;100.00;99968.56;100603;1339;23241;-32
2022/10/26 04:38:25;;;;;;;18.80;12.60;;;;;;;5.32;100.00;99966.25;100719;1339;22522;-35
2022/10/26 04:40:50;;;;;;;16.30;10.00;;;;;;;5.34;100.00;99967.10;100721;1339;26602;-35
2022/10/26 04:43:16;;;;;;;19.20;11.00;;;;;;;5.30;100.00;99967.36;100785;1339;25464;-32
2022/10/26 04:45:41;;;;;;;15.90;10.50;;;;;;;5.25;100.00;99965.90;100851;1339;23237;-35
2022/10/26 04:48:09;;;;;;;14.90;7.40;;;;;;;5.18;100.00;99962.69;100825;1339;24277;-41
2022/10/26 04:50:35;;;;;;;9.70;5.50;;;;;;;5.12;100.00;99962.81;100779;1330;23121;-33
2022/10/26 04:53:00;;;;;;;9.50;6.90;;;;;;;5.09;100.00;99963.34;100528;1342;23109;-35
2022/10/26 04:55:26;;;;;;;9.20;6.20;;;;;;;5.02;100.00;99958.85;100777;1339;22977;-33
2022/10/26 04:57:51;;;;;;;12.50;9.50;;;;;;;4.98;100.00;99958.70;100782;1334;22525;-33
2022/10/26 05:00:17;;;;;;;13.00;6.90;;;;;;;4.95;100.00;99956.88;100824;1327;22857;-37
2022/10/26 05:02:43;;;;;;;8.20;5.10;;;;;;;4.95;100.00;99959.00;100836;1339;23101;-36
2022/10/26 05:05:08;;;;;;;8.30;7.30;;;;;;;4.97;100.00;99961.45;100736;1339;22862;-36
2022/10/26 05:07:34;;;;;;;8.70;5.80;;;;;;;4.94;100.00;99962.48;100735;1331;24376;-36
2022/10/26 05:10:00;;;;;;;13.60;9.70;;;;;;;4.95;100.00;99964.48;100675;1339;24358;-36
2022/10/26 05:12:25;;;;;;;20.70;12.50;;;;;;;5.02;100.00;99965.77;100760;1331;22722;-33
2022/10/26 05:14:51;;;;;;;15.90;10.60;;;;;;;5.04;100.00;99962.91;100725;1339;22884;-32
2022/10/26 05:17:16;;;;;;;17.70;12.70;;;;;;;5.06;100.00;99964.67;100826;1337;23017;-37
2022/10/26 05:19:42;;;;;;;11.90;8.80;;;;;;;5.09;100.00;99968.69;100821;1339;24976;-32
2022/10/26 05:22:08;;;;;;;15.30;9.50;;;;;;;5.11;100.00;99967.42;100766;1333;24301;-32
2022/10/26 05:24:34;;;;;;;7.60;6.70;;;;;;;5.14;100.00;99969.52;100791;1339;24495;-34
2022/10/26 05:26:59;;;;;;;14.80;11.20;;;;;;;5.17;100.00;99972.02;100725;1338;22758;-34
2022/10/26 05:29:25;;;;;;;14.30;9.00;;;;;;;5.16;100.00;99973.51;100798;1334;22744;-32
2022/10/26 05:31:50;;;;;;;18.50;8.90;;;;;;;5.15;100.00;99977.27;100740;1339;24311;-34
2022/10/26 05:34:16;;;;;;;13.50;9.40;;;;;;;5.18;100.00;99976.53;100758;1339;22872;-35
2022/10/26 05:36:41;;;;;;;13.80;8.30;;;;;;;5.21;100.00;99982.27;100604;1342;22869;-32
2022/10/26 05:39:07;;;;;;;10.90;7.30;;;;;;;5.24;100.00;99991.71;100763;1338;22732;-35
2022/10/26 05:41:32;;;;;;;14.60;10.00;;;;;;;5.25;100.00;99994.48;100641;1339;23085;-35
2022/10/26 05:43:58;;;;;;;17.30;10.40;;;;;;;5.23;100.00;99995.02;100870;1337;23153;-32
2022/10/26 05:46:23;;;;;;;15.20;10.10;;;;;;;5.25;100.00;99996.92;100905;1331;22939;-35
2022/10/26 05:48:49;;;;;;;8.10;7.20;;;;;;;5.32;100.00;99996.77;100765;1339;24388;-32
2022/10/26 05:51:15;;;;;;;17.60;8.70;;;;;;;5.41;100.00;100007.30;100783;1339;22513;-35
2022/10/26 05:53:41;;;;;;;11.90;9.20;;;;;;;5.47;100.00;100012.00;100731;1339;22742;-32
2022/10/26 05:56:15;;;;;;;14.20;11.70;;;;;;;5.51;100.00;100012.36;100978;1337;23189;-36
2022/10/26 05:58:41;;;;;;;16.30;12.10;;;;;;;5.55;100.00;100017.63;100756;1339;22731;-36
2022/10/26 06:01:17;;;;;;;16.50;10.40;;;;;;;5.58;100.00;100018.25;100774;1331;24362;-34
2022/10/26 06:03:54;;;;;;;12.60;7.90;;;;;;;5.60;100.00;100021.62;100765;1324;25367;-39
2022/10/26 06:06:20;;;;;;;9.30;7.80;;;;;;;5.63;100.00;100024.87;100860;1322;22766;-36
2022/10/26 06:08:46;;;;;;;11.20;8.00;;;;;;;5.68;100.00;100031.13;100861;1339;24310;-33
2022/10/26 06:11:11;;;;;;;12.60;9.30;;;;;;;5.70;100.00;100033.29;100813;1330;22873;-36
2022/10/26 06:13:37;;;;;;;21.60;13.30;;;;;;;5.75;100.00;100030.15;100349;1339;562544;-33
2022/10/26 06:16:13;;;;;;;22.70;17.00;;;;;;;5.79;100.00;100031.09;100702;1339;22766;-34
2022/10/26 06:18:50;;;;;;;25.50;12.80;;;;;;;5.87;100.00;100031.59;100839;1339;22494;-36
2022/10/26 06:21:39;;;;;;;15.70;8.20;;;;;;;5.91;100.00;100035.45;100851;1339;26629;-36
2022/10/26 06:24:08;;;;;;;31.40;20.20;;;;;;;5.96;100.00;100045.30;100773;1338;24366;-33
2022/10/26 06:26:41;;;;;;;28.20;17.50;;;;;;;6.02;100.00;100046.17;100890;1339;22518;-36
2022/10/26 06:29:11;;;;;;;23.60;15.30;;;;;;;6.05;100.00;100057.95;100877;1331;22732;-35
2022/10/26 06:31:36;;;;;;;13.20;8.60;;;;;;;6.07;100.00;100065.73;100778;1337;22756;-33
2022/10/26 06:34:02;;;;;;;15.20;11.00;;;;;;;6.08;100.00;100068.27;100853;1331;23527;-37
2022/10/26 06:36:28;;;;;;;16.80;11.30;;;;;;;6.16;100.00;100075.55;100797;1339;25160;-35
2022/10/26 06:38:59;;;;;;;18.10;12.60;;;;;;;6.24;100.00;100084.57;100750;1323;22758;-33
2022/10/26 06:41:24;;;;;;;18.00;12.30;;;;;;;6.32;100.00;100089.56;100777;1331;25377;-33
2022/10/26 06:43:51;;;;;;;13.70;9.00;;;;;;;6.46;100.00;100092.84;100814;1339;23224;-33
2022/10/26 06:46:32;;;;;;;17.80;10.00;;;;;;;6.58;100.00;100100.86;100866;1314;24301;-34
2022/10/26 06:49:05;;;;;;;19.90;12.60;;;;;;;6.66;100.00;100104.23;100779;1339;22857;-35
2022/10/26 06:51:34;;;;;;;17.20;12.70;;;;;;;6.80;100.00;100107.21;100865;1339;22566;-33
2022/10/26 06:54:05;;;;;;;16.00;10.50;;;;;;;6.88;100.00;100111.68;100784;1339;23091;-35
2022/10/26 06:56:31;;;;;;;36.90;12.20;;;;;;;6.92;100.00;100115.75;100862;1338;23871;-33
2022/10/26 06:59:01;;;;;;;15.70;10.50;;;;;;;6.95;100.00;100122.55;100859;1331;23224;-33
2022/10/26 07:01:27;;;;;;;3.50;2.50;;;;;;;7.02;100.00;100126.54;100846;1333;22495;-35
2022/10/26 07:03:52;;;;;;;8.10;4.30;;;;;;;7.07;100.00;100133.66;100772;1339;22852;-33
2022/10/26 07:06:18;;;;;;;16.60;12.90;;;;;;;7.12;100.00;100136.33;100745;1331;22997;-35
2022/10/26 07:08:44;;;;;;;20.00;12.80;;;;;;;7.20;100.00;100132.88;100763;1339;23227;-36
2022/10/26 07:11:09;;;;;;;14.80;9.70;;;;;;;7.37;100.00;100138.77;100818;1338;22515;-34
2022/10/26 07:13:35;;;;;;;20.90;12.30;;;;;;;7.60;100.00;100147.30;100767;1331;23090;-33
2022/10/26 07:16:01;;;;;;;10.20;7.70;;;;;;;7.82;100.00;100154.20;100786;1339;22664;-36
2022/10/26 07:18:26;;;;;;;22.10;16.00;;;;;;;8.12;100.00;100164.45;100871;1337;23234;-36
2022/10/26 07:20:53;;;;;;;13.80;9.90;;;;;;;8.48;100.00;100170.38;100727;1339;22544;-36
2022/10/26 07:23:18;;;;;;;22.20;13.60;;;;;;;8.65;100.00;100179.73;100803;1337;22891;-36
2022/10/26 07:25:44;;;;;;;17.40;10.80;;;;;;;8.80;100.00;100179.77;100743;1337;23004;-36
2022/10/26 07:28:09;;;;;;;17.50;10.60;;;;;;;9.06;100.00;100192.14;100744;1339;23210;-36
2022/10/26 07:30:35;;;;;;;23.10;16.00;;;;;;;9.36;100.00;100198.97;100578;1339;24323;-35
2022/10/26 07:33:02;;;;;;;18.40;14.00;;;;;;;9.65;100.00;100207.95;100816;1339;24375;-34
2022/10/26 07:35:27;;;;;;;20.90;12.50;;;;;;;10.09;100.00;100213.35;100779;1330;24644;-37
2022/10/26 07:37:56;;;;;;;12.40;9.80;;;;;;;10.44;100.00;100216.96;100746;1339;23202;-35
2022/10/26 07:40:22;;;;;;;14.30;10.20;;;;;;;10.62;100.00;100220.02;100705;1339;22800;-35
2022/10/26 07:42:48;;;;;;;13.10;10.90;;;;;;;10.88;100.00;100223.92;100826;1330;22841;-35
2022/10/26 07:45:13;;;;;;;16.90;8.80;;;;;;;11.20;100.00;100226.78;100770;1339;23221;-37
2022/10/26 07:47:39;;;;;;;21.40;10.80;;;;;;;11.38;100.00;100221.96;100702;1334;24357;-35
2022/10/26 07:50:05;;;;;;;16.20;8.50;;;;;;;11.64;100.00;100208.59;100740;1338;22733;-37
2022/10/26 07:52:32;;;;;;;8.90;7.30;;;;;;;12.03;100.00;100177.34;100862;1339;23220;-36
2022/10/26 07:54:58;;;;;;;9.80;7.50;;;;;;;12.32;100.00;100161.22;100746;1339;25671;-35
2022/10/26 07:57:23;;;;;;;7.00;6.40;;;;;;;12.63;100.00;100114.16;100822;1325;22747;-35
2022/10/26 07:59:49;;;;;;;6.00;4.60;;;;;;;12.76;100.00;100097.42;100760;1339;23085;-37
2022/10/26 08:02:14;;;;;;;14.10;6.50;;;;;;;12.97;100.00;100062.92;100737;1339;23236;-37
2022/10/26 08:04:40;;;;;;;6.80;5.90;;;;;;;13.24;100.00;100052.77;100882;1339;22507;-35
2022/10/26 08:07:05;;;;;;;13.40;6.40;;;;;;;13.40;100.00;99986.86;100851;1337;22744;-37
2022/10/26 08:09:31;;;;;;;9.60;6.20;;;;;;;13.41;100.00;99922.73;100749;1339;22782;-35
2022/10/26 08:11:56;;;;;;;7.10;4.60;;;;;;;13.37;100.00;99917.90;100706;1338;23014;-33
2022/10/26 08:14:22;;;;;;;8.60;6.10;;;;;;;13.63;100.00;99910.31;100890;1331;23073;-36
2022/10/26 08:16:51;;;;;;;9.10;5.10;;;;;;;13.94;100.00;99913.55;100868;1331;22494;-35
2022/10/26 08:19:17;;;;;;;9.10;5.90;;;;;;;14.16;100.00;99915.04;100795;1337;23084;-35
2022/10/26 08:21:44;;;;;;;11.50;5.30;;;;;;;14.57;100.00;99945.41;100790;1339;22535;-36
2022/10/26 08:24:10;;;;;;;5.90;4.40;;;;;;;14.77;100.00;99968.18;100854;1332;22513;-34
2022/10/26 08:26:35;;;;;;;3.80;3.30;;;;;;;14.95;100.00;99989.03;100818;1331;22757;-38
2022/10/26 08:29:01;;;;;;;4.00;3.20;;;;;;;15.14;100.00;99975.34;100814;1339;22847;-35
2022/10/26 08:31:26;;;;;;;3.70;3.00;;;;;;;15.20;100.00;99889.57;100820;1334;23057;-36
2022/10/26 08:33:52;;;;;;;6.10;3.80;;;;;;;15.46;100.00;99938.93;100823;1339;23229;-34
2022/10/26 08:36:22;;;;;;;5.10;3.20;;;;;;;15.39;100.00;99942.13;100863;1336;22874;-34
2022/10/26 08:38:47;;;;;;;6.90;4.30;;;;;;;15.67;100.00;99919.02;100785;1339;22511;-36
2022/10/26 08:41:13;;;;;;;8.80;6.00;;;;;;;15.95;100.00;99912.23;100865;1338;24418;-35
2022/10/26 08:43:41;;;;;;;6.40;4.10;;;;;;;16.24;100.00;99905.05;100849;1340;22872;-34
2022/10/26 08:46:13;;;;;;;10.60;5.00;;;;;;;16.50;100.00;99916.62;100901;1339;22499;-35
2022/10/26 08:48:42;;;;;;;9.00;4.30;;;;;;;16.71;100.00;99918.05;100854;1331;22871;-35
2022/10/26 08:51:12;;;;;;;7.70;3.90;;;;;;;16.83;100.00;99913.61;100799;1334;22613;-35
2022/10/26 08:53:41;;;;;;;9.60;3.90;;;;;;;16.92;100.00;99902.42;100741;1331;22741;-35
2022/10/26 08:56:12;;;;;;;7.10;2.60;;;;;;;17.15;100.00;99900.61;100863;1339;23116;-35
2022/10/26 08:58:40;;;;;;;4.20;2.70;;;;;;;17.24;100.00;99900.08;100740;1337;22983;-36
2022/10/26 09:01:07;;;;;;;4.00;2.20;;;;;;;17.38;100.00;99882.08;100895;1331;26561;-36
2022/10/26 09:03:33;;;;;;;7.30;2.50;;;;;;;17.38;100.00;99879.86;100821;1339;23073;-35
2022/10/26 09:06:03;;;;;;;4.20;2.10;;;;;;;17.28;100.00;99877.32;100761;1339;24874;-35
2022/10/26 09:08:35;;;;;;;5.90;2.70;;;;;;;17.50;100.00;99884.17;100731;1334;22859;-34
2022/10/26 09:11:24;;;;;;;3.20;2.20;;;;;;;17.53;100.00;99883.33;100784;1337;25373;-35
2022/10/26 09:13:58;;;;;;;2.40;1.50;;;;;;;17.68;100.00;99869.29;100787;1339;23108;-35
2022/10/26 09:16:24;;;;;;;5.10;2.00;;;;;;;17.83;100.00;99860.56;100827;1339;24292;-35
2022/10/26 09:18:53;;;;;;;3.40;2.10;;;;;;;17.93;99.87;99859.13;100819;1337;22783;-35
2022/10/26 09:21:26;;;;;;;6.30;1.90;;;;;;;17.98;100.00;99849.42;100795;1339;23127;-36
2022/10/26 09:23:57;;;;;;;3.70;2.30;;;;;;;18.14;100.00;99861.02;100886;1334;25479;-36
2022/10/26 09:26:26;;;;;;;7.70;1.90;;;;;;;18.27;99.98;99858.97;100877;1339;22872;-36
2022/10/26 09:28:52;;;;;;;2.30;1.50;;;;;;;18.04;93.47;99849.44;100768;1339;22902;-37
2022/10/26 09:31:18;;;;;;;3.00;1.50;;;;;;;18.29;99.60;99857.02;100809;1339;22998;-36
2022/10/26 09:33:43;;;;;;;2.00;1.50;;;;;;;18.51;99.83;99858.55;100765;1331;22524;-34
2022/10/26 09:36:12;;;;;;;2.00;1.60;;;;;;;18.71;100.00;99859.83;100783;1331;22783;-38
2022/10/26 09:38:42;;;;;;;1.90;1.60;;;;;;;18.86;97.57;99859.04;100793;1338;23882;-38
2022/10/26 09:41:07;;;;;;;7.20;5.50;;;;;;;18.99;95.88;99856.52;100779;1339;22732;-36
2022/10/26 09:43:37;;;;;;;3.60;2.30;;;;;;;19.15;98.69;99859.08;100712;1333;23146;-35
2022/10/26 09:46:02;;;;;;;;;;;;;;;19.26;90.14;99859.73;100910;1337;23045;-34
2022/10/26 09:48:34;;;;;;;5.50;1.50;;;;;;;19.39;93.86;99857.65;100855;1331;22501;-34
2022/10/26 09:51:00;;;;;;;2.50;1.60;;;;;;;19.41;90.40;99863.95;100914;1339;22632;-35
2022/10/26 09:53:26;;;;;;;2.80;0.90;;;;;;;19.60;87.87;99859.52;100802;1339;22490;-37
2022/10/26 09:55:59;;;;;;;4.70;1.10;;;;;;;19.83;91.06;99859.14;100772;1331;24376;-35
2022/10/26 09:58:27;;;;;;;2.20;0.80;;;;;;;20.18;87.76;99859.16;100768;1339;25377;-37
2022/10/26 10:00:53;;;;;;;3.30;1.10;;;;;;;20.33;84.56;99864.48;100823;1330;23234;-38
2022/10/26 10:03:20;;;;;;;1.70;0.60;;;;;;;20.65;83.03;99861.42;100800;1331;26615;-36
2022/10/26 10:05:46;;;;;;;6.80;1.60;;;;;;;20.94;70.07;99857.95;100761;1340;24340;-37
2022/10/26 10:08:16;;;;;;;6.70;1.20;;;;;;;20.28;68.26;99864.95;100751;1331;25228;-36
2022/10/26 10:10:48;;;;;;;6.30;1.30;;;;;;;20.48;67.27;99864.45;100838;1339;22707;-35
2022/10/26 10:13:14;;;;;;;;;;;;;;;20.25;66.29;99865.11;100868;1331;22490;-37
2022/10/26 10:15:40;;;;;;;2.30;1.30;;;;;;;20.41;64.02;99864.16;100782;1337;22984;-35
2022/10/26 10:18:17;;;;;;;2.30;1.00;;;;;;;19.99;65.27;99862.73;100853;1338;24836;-37
2022/10/26 10:20:49;;;;;;;1.40;0.50;;;;;;;20.15;68.47;99862.23;100760;1330;22770;-36
2022/10/26 10:23:25;;;;;;;2.30;1.10;;;;;;;20.63;67.73;99859.66;100810;1339;25685;-35
2022/10/26 10:25:58;;;;;;;3.90;1.00;;;;;;;20.82;62.11;99858.50;100816;1339;22517;-37
2022/10/26 10:28:25;;;;;;;1.10;0.70;;;;;;;20.69;60.84;99854.49;100843;1337;26571;-37
2022/10/26 10:30:53;;;;;;;4.80;1.30;;;;;;;20.53;61.35;99856.39;100600;1339;22620;-39
2022/10/26 10:33:19;;;;;;;2.60;1.10;;;;;;;20.33;59.85;99858.33;100814;1339;25704;-38
2022/10/26 10:35:48;;;;;;;2.60;0.70;;;;;;;20.23;60.65;99857.44;100784;1339;22872;-38
2022/10/26 10:38:15;;;;;;;3.30;1.20;;;;;;;20.37;59.56;99855.48;100806;1339;23342;-36
2022/10/26 10:40:41;;;;;;;2.30;0.80;;;;;;;19.95;58.81;99854.55;100768;1321;22745;-38
2022/10/26 10:43:11;;;;;;;2.20;0.90;;;;;;;19.65;60.25;99859.56;100860;1331;24241;-36
2022/10/26 10:45:36;;;;;;;8.60;1.80;;;;;;;19.82;59.58;99859.46;100938;1323;23112;-38
2022/10/26 10:48:04;;;;;;;3.20;1.20;;;;;;;19.76;61.27;99860.05;100816;1337;25922;-36
2022/10/26 10:50:30;;;;;;;3.90;1.20;;;;;;;19.98;61.64;99855.80;100900;1336;24829;-36
2022/10/26 10:53:02;;;;;;;2.00;1.10;;;;;;;20.25;60.72;99854.59;100810;1338;22891;-36
2022/10/26 10:55:28;;;;;;;3.70;0.80;;;;;;;20.43;61.33;99851.77;100877;1339;24343;-38
2022/10/26 10:58:03;;;;;;;1.50;0.80;;;;;;;20.77;61.82;99849.27;100783;1332;22914;-37
2022/10/26 11:00:32;;;;;;;;;;;;;;;21.16;60.09;99847.64;100863;1338;23377;-38
2022/10/26 11:03:05;;;;;;;1.40;0.80;;;;;;;21.23;58.14;99847.70;100800;1339;24559;-34
2022/10/26 11:05:37;;;;;;;2.20;0.80;;;;;;;20.95;57.86;99848.95;100816;1338;22614;-34
2022/10/26 11:08:07;;;;;;;3.40;1.30;;;;;;;21.17;58.14;99846.98;100880;1336;22518;-35
2022/10/26 11:10:36;;;;;;;2.30;1.60;;;;;;;21.24;58.42;99845.31;100762;1339;23014;-36
2022/10/26 11:13:05;;;;;;;3.30;1.50;;;;;;;21.34;55.60;99851.11;100823;1338;22881;-37
2022/10/26 11:15:32;;;;;;;2.00;1.00;;;;;;;20.92;56.47;99851.60;100724;1333;25338;-35
2022/10/26 11:18:06;;;;;;;1.80;1.30;;;;;;;20.86;56.28;99851.66;100916;1337;25402;-36